sensor_id;sensor_type;location;lat;lon;timestamp;P1;durP1;ratioP1;P2;durP2;ratioP2
5841;SDS011;2947;52.276;9.946;2022-10-16T00:01:21;2.88;;;1.40;;
5841;SDS011;2947;52.276;9.946;2022-10-16T00:03:49;4.75;;;1.80;;
5841;SDS011;2947;52.276;9.946;2022-10-16T00:06:17;6.65;;;1.40;;
5841;SDS011;2947;52.276;9.946;2022-10-16T00:08:45;2.75;;;1.48;;
5841;SDS011;2947;52.276;9.946;2022-10-16T00:11:13;2.92;;;1.25;;
5841;SDS011;2947;52.276;9.946;2022-10-16T00:13:41;2.40;;;1.40;;
5841;SDS011;2947;52.276;9.946;2022-10-16T00:16:08;4.53;;;1.25;;
5841;SDS011;2947;52.276;9.946;2022-10-16T00:18:35;4.88;;;1.42;;
5841;SDS011;2947;52.276;9.946;2022-10-16T00:21:06;4.43;;;1.30;;
5841;SDS011;2947;52.276;9.946;2022-10-16T00:23:35;4.68;;;1.33;;
5841;SDS011;2947;52.276;9.946;2022-10-16T00:26:02;2.53;;;1.05;;
5841;SDS011;2947;52.276;9.946;2022-10-16T00:28:31;3.35;;;1.58;;
5841;SDS011;2947;52.276;9.946;2022-10-16T00:30:58;2.33;;;1.40;;
5841;SDS011;2947;52.276;9.946;2022-10-16T00:33:24;1.90;;;1.02;;
5841;SDS011;2947;52.276;9.946;2022-10-16T00:35:49;3.22;;;1.30;;
5841;SDS011;2947;52.276;9.946;2022-10-16T00:38:15;3.15;;;1.10;;
5841;SDS011;2947;52.276;9.946;2022-10-16T00:40:42;7.05;;;1.50;;
5841;SDS011;2947;52.276;9.946;2022-10-16T00:43:12;2.17;;;1.35;;
5841;SDS011;2947;52.276;9.946;2022-10-16T00:45:58;2.72;;;1.30;;
5841;SDS011;2947;52.276;9.946;2022-10-16T00:48:26;3.65;;;1.20;;
5841;SDS011;2947;52.276;9.946;2022-10-16T00:50:52;2.58;;;1.30;;
5841;SDS011;2947;52.276;9.946;2022-10-16T00:53:18;3.33;;;1.30;;
5841;SDS011;2947;52.276;9.946;2022-10-16T00:55:44;2.45;;;1.40;;
5841;SDS011;2947;52.276;9.946;2022-10-16T00:58:11;5.43;;;1.55;;
5841;SDS011;2947;52.276;9.946;2022-10-16T01:00:37;3.08;;;1.67;;
5841;SDS011;2947;52.276;9.946;2022-10-16T01:03:03;3.17;;;1.67;;
5841;SDS011;2947;52.276;9.946;2022-10-16T01:05:52;2.45;;;1.38;;
5841;SDS011;2947;52.276;9.946;2022-10-16T01:12:26;3.25;;;1.40;;
5841;SDS011;2947;52.276;9.946;2022-10-16T01:17:35;2.35;;;1.17;;
5841;SDS011;2947;52.276;9.946;2022-10-16T01:20:11;3.90;;;1.50;;
5841;SDS011;2947;52.276;9.946;2022-10-16T01:23:15;3.45;;;1.30;;
5841;SDS011;2947;52.276;9.946;2022-10-16T01:25:53;3.13;;;1.83;;
5841;SDS011;2947;52.276;9.946;2022-10-16T01:28:40;2.53;;;1.60;;
5841;SDS011;2947;52.276;9.946;2022-10-16T01:31:22;4.72;;;1.63;;
5841;SDS011;2947;52.276;9.946;2022-10-16T01:33:56;3.55;;;1.70;;
5841;SDS011;2947;52.276;9.946;2022-10-16T01:36:35;5.18;;;1.80;;
5841;SDS011;2947;52.276;9.946;2022-10-16T01:39:05;4.25;;;1.60;;
5841;SDS011;2947;52.276;9.946;2022-10-16T01:41:45;2.30;;;1.60;;
5841;SDS011;2947;52.276;9.946;2022-10-16T01:44:22;3.67;;;2.22;;
5841;SDS011;2947;52.276;9.946;2022-10-16T01:46:53;3.78;;;1.50;;
5841;SDS011;2947;52.276;9.946;2022-10-16T01:49:20;2.83;;;1.90;;
5841;SDS011;2947;52.276;9.946;2022-10-16T01:51:50;2.50;;;1.75;;
5841;SDS011;2947;52.276;9.946;2022-10-16T01:54:21;3.85;;;2.13;;
5841;SDS011;2947;52.276;9.946;2022-10-16T01:56:51;2.55;;;1.80;;
5841;SDS011;2947;52.276;9.946;2022-10-16T01:59:18;5.25;;;1.98;;
5841;SDS011;2947;52.276;9.946;2022-10-16T02:01:50;5.88;;;1.98;;
5841;SDS011;2947;52.276;9.946;2022-10-16T02:04:24;5.35;;;2.35;;
5841;SDS011;2947;52.276;9.946;2022-10-16T02:06:59;8.65;;;2.40;;
5841;SDS011;2947;52.276;9.946;2022-10-16T02:09:25;2.97;;;2.15;;
5841;SDS011;2947;52.276;9.946;2022-10-16T02:11:55;2.50;;;1.80;;
5841;SDS011;2947;52.276;9.946;2022-10-16T02:14:24;3.50;;;2.35;;
5841;SDS011;2947;52.276;9.946;2022-10-16T02:16:51;5.78;;;2.58;;
5841;SDS011;2947;52.276;9.946;2022-10-16T02:19:17;5.55;;;2.22;;
5841;SDS011;2947;52.276;9.946;2022-10-16T02:21:55;3.63;;;1.88;;
5841;SDS011;2947;52.276;9.946;2022-10-16T02:27:13;3.22;;;2.20;;
5841;SDS011;2947;52.276;9.946;2022-10-16T02:29:59;3.55;;;2.20;;
5841;SDS011;2947;52.276;9.946;2022-10-16T02:32:45;2.97;;;1.90;;
5841;SDS011;2947;52.276;9.946;2022-10-16T02:35:14;3.35;;;2.08;;
5841;SDS011;2947;52.276;9.946;2022-10-16T02:37:43;3.70;;;2.35;;
5841;SDS011;2947;52.276;9.946;2022-10-16T02:40:10;3.17;;;2.25;;
5841;SDS011;2947;52.276;9.946;2022-10-16T02:42:38;3.53;;;2.35;;
5841;SDS011;2947;52.276;9.946;2022-10-16T02:45:06;2.85;;;1.80;;
5841;SDS011;2947;52.276;9.946;2022-10-16T02:47:34;3.70;;;2.17;;
5841;SDS011;2947;52.276;9.946;2022-10-16T02:50:00;5.50;;;2.55;;
5841;SDS011;2947;52.276;9.946;2022-10-16T02:52:26;4.53;;;2.20;;
5841;SDS011;2947;52.276;9.946;2022-10-16T02:54:51;3.50;;;2.25;;
5841;SDS011;2947;52.276;9.946;2022-10-16T02:57:17;3.33;;;2.15;;
5841;SDS011;2947;52.276;9.946;2022-10-16T02:59:43;4.60;;;2.47;;
5841;SDS011;2947;52.276;9.946;2022-10-16T03:02:09;8.93;;;2.47;;
5841;SDS011;2947;52.276;9.946;2022-10-16T03:04:35;7.53;;;2.85;;
5841;SDS011;2947;52.276;9.946;2022-10-16T03:07:02;4.18;;;2.38;;
5841;SDS011;2947;52.276;9.946;2022-10-16T03:09:28;8.88;;;2.28;;
5841;SDS011;2947;52.276;9.946;2022-10-16T03:11:53;3.97;;;2.30;;
5841;SDS011;2947;52.276;9.946;2022-10-16T03:14:19;4.50;;;2.42;;
5841;SDS011;2947;52.276;9.946;2022-10-16T03:16:45;6.50;;;1.95;;
5841;SDS011;2947;52.276;9.946;2022-10-16T03:19:11;3.83;;;2.40;;
5841;SDS011;2947;52.276;9.946;2022-10-16T03:21:36;3.70;;;2.13;;
5841;SDS011;2947;52.276;9.946;2022-10-16T03:24:02;6.53;;;2.28;;
5841;SDS011;2947;52.276;9.946;2022-10-16T03:26:28;5.93;;;2.40;;
5841;SDS011;2947;52.276;9.946;2022-10-16T03:28:54;5.45;;;2.45;;
5841;SDS011;2947;52.276;9.946;2022-10-16T03:31:19;5.78;;;2.33;;
5841;SDS011;2947;52.276;9.946;2022-10-16T03:33:45;6.45;;;2.67;;
5841;SDS011;2947;52.276;9.946;2022-10-16T03:36:11;4.63;;;2.20;;
5841;SDS011;2947;52.276;9.946;2022-10-16T03:38:36;5.50;;;2.65;;
5841;SDS011;2947;52.276;9.946;2022-10-16T03:41:02;3.65;;;2.50;;
5841;SDS011;2947;52.276;9.946;2022-10-16T03:43:28;6.68;;;2.72;;
5841;SDS011;2947;52.276;9.946;2022-10-16T03:45:54;4.90;;;2.30;;
5841;SDS011;2947;52.276;9.946;2022-10-16T03:48:20;5.78;;;2.53;;
5841;SDS011;2947;52.276;9.946;2022-10-16T03:50:46;6.32;;;2.33;;
5841;SDS011;2947;52.276;9.946;2022-10-16T03:53:13;7.43;;;2.88;;
5841;SDS011;2947;52.276;9.946;2022-10-16T03:55:43;4.63;;;2.40;;
5841;SDS011;2947;52.276;9.946;2022-10-16T03:58:09;5.03;;;2.78;;
5841;SDS011;2947;52.276;9.946;2022-10-16T04:00:36;5.90;;;2.40;;
5841;SDS011;2947;52.276;9.946;2022-10-16T04:03:08;3.72;;;2.30;;
5841;SDS011;2947;52.276;9.946;2022-10-16T04:05:35;6.60;;;2.57;;
5841;SDS011;2947;52.276;9.946;2022-10-16T04:08:00;6.20;;;2.63;;
5841;SDS011;2947;52.276;9.946;2022-10-16T04:10:26;6.80;;;2.93;;
5841;SDS011;2947;52.276;9.946;2022-10-16T04:12:52;6.67;;;3.00;;
5841;SDS011;2947;52.276;9.946;2022-10-16T04:15:20;4.30;;;2.35;;
5841;SDS011;2947;52.276;9.946;2022-10-16T04:17:47;7.65;;;2.55;;
5841;SDS011;2947;52.276;9.946;2022-10-16T04:20:13;5.63;;;2.47;;
5841;SDS011;2947;52.276;9.946;2022-10-16T04:22:39;7.07;;;2.67;;
5841;SDS011;2947;52.276;9.946;2022-10-16T04:25:05;10.30;;;2.92;;
5841;SDS011;2947;52.276;9.946;2022-10-16T04:27:30;6.50;;;2.60;;
5841;SDS011;2947;52.276;9.946;2022-10-16T04:29:59;5.30;;;2.88;;
5841;SDS011;2947;52.276;9.946;2022-10-16T04:32:26;13.18;;;2.92;;
5841;SDS011;2947;52.276;9.946;2022-10-16T04:34:52;4.45;;;2.20;;
5841;SDS011;2947;52.276;9.946;2022-10-16T04:37:18;5.07;;;3.40;;
5841;SDS011;2947;52.276;9.946;2022-10-16T04:39:48;4.10;;;2.60;;
5841;SDS011;2947;52.276;9.946;2022-10-16T04:42:14;6.67;;;2.33;;
5841;SDS011;2947;52.276;9.946;2022-10-16T04:44:39;8.18;;;3.03;;
5841;SDS011;2947;52.276;9.946;2022-10-16T04:47:05;4.57;;;2.90;;
5841;SDS011;2947;52.276;9.946;2022-10-16T04:49:31;5.97;;;2.70;;
5841;SDS011;2947;52.276;9.946;2022-10-16T04:51:56;6.85;;;3.10;;
5841;SDS011;2947;52.276;9.946;2022-10-16T04:54:22;4.80;;;3.00;;
5841;SDS011;2947;52.276;9.946;2022-10-16T04:56:48;3.60;;;2.20;;
5841;SDS011;2947;52.276;9.946;2022-10-16T04:59:16;4.22;;;2.78;;
5841;SDS011;2947;52.276;9.946;2022-10-16T05:01:43;4.15;;;2.80;;
5841;SDS011;2947;52.276;9.946;2022-10-16T05:04:09;8.57;;;2.57;;
5841;SDS011;2947;52.276;9.946;2022-10-16T05:06:35;6.60;;;2.80;;
5841;SDS011;2947;52.276;9.946;2022-10-16T05:09:03;3.65;;;2.30;;
5841;SDS011;2947;52.276;9.946;2022-10-16T05:11:33;7.10;;;2.50;;
5841;SDS011;2947;52.276;9.946;2022-10-16T05:13:59;5.07;;;2.60;;
5841;SDS011;2947;52.276;9.946;2022-10-16T05:16:25;5.07;;;2.50;;
5841;SDS011;2947;52.276;9.946;2022-10-16T05:18:51;5.07;;;2.40;;
5841;SDS011;2947;52.276;9.946;2022-10-16T05:21:18;4.35;;;3.00;;
5841;SDS011;2947;52.276;9.946;2022-10-16T05:23:44;5.07;;;2.80;;
5841;SDS011;2947;52.276;9.946;2022-10-16T05:26:10;4.77;;;2.77;;
5841;SDS011;2947;52.276;9.946;2022-10-16T05:28:35;7.15;;;2.83;;
5841;SDS011;2947;52.276;9.946;2022-10-16T05:31:08;5.90;;;2.75;;
5841;SDS011;2947;52.276;9.946;2022-10-16T05:33:34;5.72;;;2.53;;
5841;SDS011;2947;52.276;9.946;2022-10-16T05:36:01;3.77;;;2.37;;
5841;SDS011;2947;52.276;9.946;2022-10-16T05:38:32;6.20;;;2.60;;
5841;SDS011;2947;52.276;9.946;2022-10-16T05:41:02;4.43;;;2.30;;
5841;SDS011;2947;52.276;9.946;2022-10-16T05:43:29;7.43;;;2.27;;
5841;SDS011;2947;52.276;9.946;2022-10-16T05:45:56;4.35;;;2.17;;
5841;SDS011;2947;52.276;9.946;2022-10-16T05:48:23;3.30;;;2.00;;
5841;SDS011;2947;52.276;9.946;2022-10-16T05:51:03;7.13;;;2.30;;
5841;SDS011;2947;52.276;9.946;2022-10-16T05:53:32;5.15;;;2.10;;
5841;SDS011;2947;52.276;9.946;2022-10-16T05:56:01;3.63;;;2.03;;
5841;SDS011;2947;52.276;9.946;2022-10-16T05:58:28;5.03;;;2.03;;
5841;SDS011;2947;52.276;9.946;2022-10-16T06:01:04;3.67;;;2.10;;
5841;SDS011;2947;52.276;9.946;2022-10-16T06:03:39;7.40;;;2.53;;
5841;SDS011;2947;52.276;9.946;2022-10-16T06:06:15;3.85;;;2.80;;
5841;SDS011;2947;52.276;9.946;2022-10-16T06:08:48;3.60;;;2.10;;
5841;SDS011;2947;52.276;9.946;2022-10-16T06:11:15;5.70;;;2.38;;
5841;SDS011;2947;52.276;9.946;2022-10-16T06:13:53;5.05;;;2.25;;
5841;SDS011;2947;52.276;9.946;2022-10-16T06:16:21;5.27;;;2.60;;
5841;SDS011;2947;52.276;9.946;2022-10-16T06:18:50;3.70;;;2.80;;
5841;SDS011;2947;52.276;9.946;2022-10-16T06:21:17;5.00;;;2.70;;
5841;SDS011;2947;52.276;9.946;2022-10-16T06:23:45;4.40;;;2.00;;
5841;SDS011;2947;52.276;9.946;2022-10-16T06:26:12;7.70;;;2.20;;
5841;SDS011;2947;52.276;9.946;2022-10-16T06:28:41;4.70;;;2.27;;
5841;SDS011;2947;52.276;9.946;2022-10-16T06:31:08;3.50;;;2.20;;
5841;SDS011;2947;52.276;9.946;2022-10-16T06:33:36;5.82;;;3.10;;
5841;SDS011;2947;52.276;9.946;2022-10-16T06:36:03;2.92;;;1.70;;
5841;SDS011;2947;52.276;9.946;2022-10-16T06:38:35;4.73;;;2.43;;
5841;SDS011;2947;52.276;9.946;2022-10-16T06:41:02;11.73;;;2.05;;
5841;SDS011;2947;52.276;9.946;2022-10-16T06:43:29;5.15;;;2.65;;
5841;SDS011;2947;52.276;9.946;2022-10-16T06:46:01;4.15;;;2.10;;
5841;SDS011;2947;52.276;9.946;2022-10-16T06:48:28;12.00;;;2.00;;
5841;SDS011;2947;52.276;9.946;2022-10-16T06:51:02;3.33;;;2.30;;
5841;SDS011;2947;52.276;9.946;2022-10-16T06:53:33;5.30;;;1.83;;
5841;SDS011;2947;52.276;9.946;2022-10-16T06:56:07;4.40;;;2.40;;
5841;SDS011;2947;52.276;9.946;2022-10-16T06:58:37;3.03;;;1.98;;
5841;SDS011;2947;52.276;9.946;2022-10-16T07:01:04;3.20;;;1.88;;
5841;SDS011;2947;52.276;9.946;2022-10-16T07:03:31;8.63;;;1.57;;
5841;SDS011;2947;52.276;9.946;2022-10-16T07:06:00;4.87;;;1.97;;
5841;SDS011;2947;52.276;9.946;2022-10-16T07:08:34;2.85;;;1.75;;
5841;SDS011;2947;52.276;9.946;2022-10-16T07:11:03;4.32;;;2.28;;
5841;SDS011;2947;52.276;9.946;2022-10-16T07:13:34;3.28;;;1.98;;
5841;SDS011;2947;52.276;9.946;2022-10-16T07:16:08;5.87;;;1.80;;
5841;SDS011;2947;52.276;9.946;2022-10-16T07:18:37;3.35;;;2.08;;
5841;SDS011;2947;52.276;9.946;2022-10-16T07:21:12;2.60;;;1.75;;
5841;SDS011;2947;52.276;9.946;2022-10-16T07:23:50;3.58;;;2.40;;
5841;SDS011;2947;52.276;9.946;2022-10-16T07:26:22;4.78;;;1.88;;
5841;SDS011;2947;52.276;9.946;2022-10-16T07:28:49;3.45;;;1.98;;
5841;SDS011;2947;52.276;9.946;2022-10-16T07:31:15;2.40;;;1.42;;
5841;SDS011;2947;52.276;9.946;2022-10-16T07:33:43;2.78;;;1.20;;
5841;SDS011;2947;52.276;9.946;2022-10-16T07:36:11;3.70;;;1.50;;
5841;SDS011;2947;52.276;9.946;2022-10-16T07:38:37;6.90;;;2.47;;
5841;SDS011;2947;52.276;9.946;2022-10-16T07:41:04;2.58;;;1.33;;
5841;SDS011;2947;52.276;9.946;2022-10-16T07:43:33;2.65;;;1.48;;
5841;SDS011;2947;52.276;9.946;2022-10-16T07:45:58;2.33;;;1.30;;
5841;SDS011;2947;52.276;9.946;2022-10-16T07:48:29;3.08;;;1.70;;
5841;SDS011;2947;52.276;9.946;2022-10-16T07:50:58;3.05;;;1.13;;
5841;SDS011;2947;52.276;9.946;2022-10-16T07:53:25;3.10;;;1.60;;
5841;SDS011;2947;52.276;9.946;2022-10-16T07:55:51;2.67;;;1.40;;
5841;SDS011;2947;52.276;9.946;2022-10-16T07:58:17;1.88;;;1.00;;
5841;SDS011;2947;52.276;9.946;2022-10-16T08:00:43;2.00;;;1.30;;
5841;SDS011;2947;52.276;9.946;2022-10-16T08:03:08;2.22;;;1.10;;
5841;SDS011;2947;52.276;9.946;2022-10-16T08:05:34;1.63;;;0.85;;
5841;SDS011;2947;52.276;9.946;2022-10-16T08:08:00;2.05;;;1.48;;
5841;SDS011;2947;52.276;9.946;2022-10-16T08:10:27;4.50;;;1.20;;
5841;SDS011;2947;52.276;9.946;2022-10-16T08:12:54;1.80;;;0.90;;
5841;SDS011;2947;52.276;9.946;2022-10-16T08:15:20;2.30;;;0.90;;
5841;SDS011;2947;52.276;9.946;2022-10-16T08:17:59;2.58;;;1.20;;
5841;SDS011;2947;52.276;9.946;2022-10-16T08:20:27;3.53;;;1.00;;
5841;SDS011;2947;52.276;9.946;2022-10-16T08:22:54;2.10;;;1.00;;
5841;SDS011;2947;52.276;9.946;2022-10-16T08:25:20;2.42;;;1.05;;
5841;SDS011;2947;52.276;9.946;2022-10-16T08:27:47;2.88;;;0.90;;
5841;SDS011;2947;52.276;9.946;2022-10-16T08:30:13;1.88;;;1.17;;
5841;SDS011;2947;52.276;9.946;2022-10-16T08:32:39;2.20;;;1.25;;
5841;SDS011;2947;52.276;9.946;2022-10-16T08:35:07;4.68;;;1.00;;
5841;SDS011;2947;52.276;9.946;2022-10-16T08:37:36;4.40;;;1.15;;
5841;SDS011;2947;52.276;9.946;2022-10-16T08:40:04;2.40;;;1.00;;
5841;SDS011;2947;52.276;9.946;2022-10-16T08:42:35;1.85;;;1.00;;
5841;SDS011;2947;52.276;9.946;2022-10-16T08:48:23;2.75;;;1.17;;
5841;SDS011;2947;52.276;9.946;2022-10-16T08:51:01;4.03;;;1.17;;
5841;SDS011;2947;52.276;9.946;2022-10-16T08:53:30;4.45;;;1.10;;
5841;SDS011;2947;52.276;9.946;2022-10-16T08:56:10;2.50;;;1.30;;
5841;SDS011;2947;52.276;9.946;2022-10-16T08:58:35;4.50;;;1.67;;
5841;SDS011;2947;52.276;9.946;2022-10-16T09:01:03;2.53;;;1.38;;
5841;SDS011;2947;52.276;9.946;2022-10-16T09:06:46;3.30;;;1.13;;
5841;SDS011;2947;52.276;9.946;2022-10-16T09:11:57;2.33;;;1.23;;
5841;SDS011;2947;52.276;9.946;2022-10-16T09:14:49;2.55;;;0.90;;
5841;SDS011;2947;52.276;9.946;2022-10-16T09:17:39;3.67;;;0.90;;
5841;SDS011;2947;52.276;9.946;2022-10-16T09:23:28;3.58;;;1.08;;
5841;SDS011;2947;52.276;9.946;2022-10-16T09:25:56;2.13;;;1.00;;
5841;SDS011;2947;52.276;9.946;2022-10-16T09:28:23;2.22;;;1.10;;
5841;SDS011;2947;52.276;9.946;2022-10-16T09:30:49;2.42;;;1.00;;
5841;SDS011;2947;52.276;9.946;2022-10-16T09:33:17;1.83;;;0.80;;
5841;SDS011;2947;52.276;9.946;2022-10-16T09:35:47;2.58;;;1.10;;
5841;SDS011;2947;52.276;9.946;2022-10-16T09:38:29;1.85;;;0.98;;
5841;SDS011;2947;52.276;9.946;2022-10-16T09:40:59;5.78;;;0.93;;
5841;SDS011;2947;52.276;9.946;2022-10-16T09:46:21;1.45;;;0.77;;
5841;SDS011;2947;52.276;9.946;2022-10-16T09:49:00;2.35;;;1.02;;
5841;SDS011;2947;52.276;9.946;2022-10-16T09:51:33;1.95;;;0.90;;
5841;SDS011;2947;52.276;9.946;2022-10-16T09:56:33;3.00;;;1.70;;
5841;SDS011;2947;52.276;9.946;2022-10-16T09:59:02;1.60;;;0.70;;
5841;SDS011;2947;52.276;9.946;2022-10-16T10:01:45;2.42;;;0.80;;
5841;SDS011;2947;52.276;9.946;2022-10-16T10:04:16;5.05;;;2.65;;
5841;SDS011;2947;52.276;9.946;2022-10-16T10:06:46;1.90;;;0.88;;
5841;SDS011;2947;52.276;9.946;2022-10-16T10:12:02;1.30;;;0.60;;
5841;SDS011;2947;52.276;9.946;2022-10-16T10:14:39;1.60;;;0.85;;
5841;SDS011;2947;52.276;9.946;2022-10-16T10:17:18;2.30;;;1.17;;
5841;SDS011;2947;52.276;9.946;2022-10-16T10:19:47;3.65;;;0.98;;
5841;SDS011;2947;52.276;9.946;2022-10-16T10:22:27;2.67;;;1.00;;
5841;SDS011;2947;52.276;9.946;2022-10-16T10:27:49;2.22;;;0.68;;
5841;SDS011;2947;52.276;9.946;2022-10-16T10:30:41;2.53;;;1.38;;
5841;SDS011;2947;52.276;9.946;2022-10-16T10:53:44;3.17;;;1.00;;
5841;SDS011;2947;52.276;9.946;2022-10-16T11:07:26;3.58;;;0.73;;
5841;SDS011;2947;52.276;9.946;2022-10-16T11:09:58;6.10;;;2.25;;
5841;SDS011;2947;52.276;9.946;2022-10-16T11:12:51;2.58;;;0.90;;
5841;SDS011;2947;52.276;9.946;2022-10-16T11:15:29;1.77;;;0.75;;
5841;SDS011;2947;52.276;9.946;2022-10-16T11:18:00;2.15;;;0.65;;
5841;SDS011;2947;52.276;9.946;2022-10-16T11:20:42;2.95;;;0.70;;
5841;SDS011;2947;52.276;9.946;2022-10-16T11:25:50;2.22;;;0.70;;
5841;SDS011;2947;52.276;9.946;2022-10-16T11:28:18;5.70;;;0.82;;
5841;SDS011;2947;52.276;9.946;2022-10-16T11:33:51;2.40;;;0.60;;
5841;SDS011;2947;52.276;9.946;2022-10-16T11:36:31;7.00;;;1.10;;
5841;SDS011;2947;52.276;9.946;2022-10-16T11:39:21;3.72;;;0.93;;
5841;SDS011;2947;52.276;9.946;2022-10-16T11:41:52;1.90;;;0.60;;
5841;SDS011;2947;52.276;9.946;2022-10-16T11:49:49;3.75;;;0.95;;
5841;SDS011;2947;52.276;9.946;2022-10-16T11:55:56;4.72;;;1.10;;
5841;SDS011;2947;52.276;9.946;2022-10-16T12:03:50;2.17;;;0.60;;
5841;SDS011;2947;52.276;9.946;2022-10-16T12:09:24;4.65;;;0.95;;
5841;SDS011;2947;52.276;9.946;2022-10-16T12:11:54;4.05;;;0.77;;
5841;SDS011;2947;52.276;9.946;2022-10-16T12:14:21;2.10;;;0.50;;
5841;SDS011;2947;52.276;9.946;2022-10-16T12:19:59;3.53;;;0.70;;
5841;SDS011;2947;52.276;9.946;2022-10-16T12:22:37;2.50;;;0.68;;
5841;SDS011;2947;52.276;9.946;2022-10-16T12:25:20;2.60;;;0.70;;
5841;SDS011;2947;52.276;9.946;2022-10-16T12:27:56;2.33;;;0.73;;
5841;SDS011;2947;52.276;9.946;2022-10-16T12:30:24;3.70;;;0.75;;
5841;SDS011;2947;52.276;9.946;2022-10-16T12:32:57;1.83;;;0.70;;
5841;SDS011;2947;52.276;9.946;2022-10-16T12:35:32;4.32;;;0.70;;
5841;SDS011;2947;52.276;9.946;2022-10-16T12:38:07;1.90;;;0.70;;
5841;SDS011;2947;52.276;9.946;2022-10-16T12:41:29;2.13;;;0.65;;
5841;SDS011;2947;52.276;9.946;2022-10-16T12:44:00;3.40;;;1.73;;
5841;SDS011;2947;52.276;9.946;2022-10-16T12:51:53;3.17;;;0.65;;
5841;SDS011;2947;52.276;9.946;2022-10-16T12:54:25;3.15;;;0.82;;
5841;SDS011;2947;52.276;9.946;2022-10-16T13:09:43;2.40;;;0.60;;
5841;SDS011;2947;52.276;9.946;2022-10-16T13:12:44;3.78;;;0.77;;
5841;SDS011;2947;52.276;9.946;2022-10-16T13:18:07;4.22;;;0.70;;
5841;SDS011;2947;52.276;9.946;2022-10-16T13:21:16;3.17;;;0.90;;
5841;SDS011;2947;52.276;9.946;2022-10-16T13:29:52;2.90;;;0.65;;
5841;SDS011;2947;52.276;9.946;2022-10-16T13:32:25;2.00;;;0.55;;
5841;SDS011;2947;52.276;9.946;2022-10-16T13:34:52;4.35;;;1.35;;
5841;SDS011;2947;52.276;9.946;2022-10-16T13:37:20;2.67;;;0.75;;
5841;SDS011;2947;52.276;9.946;2022-10-16T13:39:48;4.78;;;0.57;;
5841;SDS011;2947;52.276;9.946;2022-10-16T13:42:25;2.38;;;0.50;;
5841;SDS011;2947;52.276;9.946;2022-10-16T13:44:53;1.58;;;0.73;;
5841;SDS011;2947;52.276;9.946;2022-10-16T13:47:24;1.92;;;0.90;;
5841;SDS011;2947;52.276;9.946;2022-10-16T13:50:03;1.98;;;0.60;;
5841;SDS011;2947;52.276;9.946;2022-10-16T13:52:34;3.30;;;0.50;;
5841;SDS011;2947;52.276;9.946;2022-10-16T13:55:00;1.63;;;0.40;;
5841;SDS011;2947;52.276;9.946;2022-10-16T13:57:25;2.30;;;0.50;;
5841;SDS011;2947;52.276;9.946;2022-10-16T13:59:51;3.03;;;0.60;;
5841;SDS011;2947;52.276;9.946;2022-10-16T14:02:20;4.03;;;0.70;;
5841;SDS011;2947;52.276;9.946;2022-10-16T14:04:57;1.60;;;0.70;;
5841;SDS011;2947;52.276;9.946;2022-10-16T14:07:24;2.97;;;0.50;;
5841;SDS011;2947;52.276;9.946;2022-10-16T14:10:04;1.60;;;0.60;;
5841;SDS011;2947;52.276;9.946;2022-10-16T14:12:32;3.35;;;0.70;;
5841;SDS011;2947;52.276;9.946;2022-10-16T14:14:59;4.50;;;0.50;;
5841;SDS011;2947;52.276;9.946;2022-10-16T14:17:26;1.85;;;0.60;;
5841;SDS011;2947;52.276;9.946;2022-10-16T14:19:56;2.72;;;0.70;;
5841;SDS011;2947;52.276;9.946;2022-10-16T14:22:27;1.80;;;0.50;;
5841;SDS011;2947;52.276;9.946;2022-10-16T14:25:19;3.15;;;0.70;;
5841;SDS011;2947;52.276;9.946;2022-10-16T14:27:56;2.92;;;0.80;;
5841;SDS011;2947;52.276;9.946;2022-10-16T14:30:27;1.50;;;0.50;;
5841;SDS011;2947;52.276;9.946;2022-10-16T14:32:58;2.08;;;0.55;;
5841;SDS011;2947;52.276;9.946;2022-10-16T14:35:33;2.13;;;0.75;;
5841;SDS011;2947;52.276;9.946;2022-10-16T14:38:02;5.70;;;0.80;;
5841;SDS011;2947;52.276;9.946;2022-10-16T14:40:31;1.58;;;0.60;;
5841;SDS011;2947;52.276;9.946;2022-10-16T14:43:01;3.28;;;0.57;;
5841;SDS011;2947;52.276;9.946;2022-10-16T14:45:30;2.13;;;0.60;;
5841;SDS011;2947;52.276;9.946;2022-10-16T14:48:01;1.98;;;0.80;;
5841;SDS011;2947;52.276;9.946;2022-10-16T14:50:31;3.85;;;0.70;;
5841;SDS011;2947;52.276;9.946;2022-10-16T14:52:58;2.88;;;0.50;;
5841;SDS011;2947;52.276;9.946;2022-10-16T14:55:24;1.88;;;0.70;;
5841;SDS011;2947;52.276;9.946;2022-10-16T14:57:50;2.75;;;0.80;;
5841;SDS011;2947;52.276;9.946;2022-10-16T15:00:20;2.00;;;0.70;;
5841;SDS011;2947;52.276;9.946;2022-10-16T15:02:48;1.67;;;0.65;;
5841;SDS011;2947;52.276;9.946;2022-10-16T15:07:47;2.22;;;0.80;;
5841;SDS011;2947;52.276;9.946;2022-10-16T15:10:14;1.58;;;0.45;;
5841;SDS011;2947;52.276;9.946;2022-10-16T15:12:42;3.35;;;0.80;;
5841;SDS011;2947;52.276;9.946;2022-10-16T15:17:59;4.32;;;0.68;;
5841;SDS011;2947;52.276;9.946;2022-10-16T15:20:26;3.80;;;0.73;;
5841;SDS011;2947;52.276;9.946;2022-10-16T15:22:56;2.20;;;0.60;;
5841;SDS011;2947;52.276;9.946;2022-10-16T15:27:56;1.70;;;0.60;;
5841;SDS011;2947;52.276;9.946;2022-10-16T15:30:23;2.67;;;0.93;;
5841;SDS011;2947;52.276;9.946;2022-10-16T15:32:49;2.92;;;1.05;;
5841;SDS011;2947;52.276;9.946;2022-10-16T15:35:15;2.60;;;0.57;;
5841;SDS011;2947;52.276;9.946;2022-10-16T15:37:40;2.75;;;0.80;;
5841;SDS011;2947;52.276;9.946;2022-10-16T15:40:07;3.95;;;0.90;;
5841;SDS011;2947;52.276;9.946;2022-10-16T15:42:35;2.47;;;0.80;;
5841;SDS011;2947;52.276;9.946;2022-10-16T15:45:01;2.40;;;0.70;;
5841;SDS011;2947;52.276;9.946;2022-10-16T15:47:28;3.05;;;1.05;;
5841;SDS011;2947;52.276;9.946;2022-10-16T15:49:54;1.60;;;0.60;;
5841;SDS011;2947;52.276;9.946;2022-10-16T15:52:21;3.25;;;0.80;;
5841;SDS011;2947;52.276;9.946;2022-10-16T15:54:47;4.45;;;1.10;;
5841;SDS011;2947;52.276;9.946;2022-10-16T15:57:13;1.80;;;0.90;;
5841;SDS011;2947;52.276;9.946;2022-10-16T15:59:38;1.75;;;0.77;;
5841;SDS011;2947;52.276;9.946;2022-10-16T16:02:04;3.13;;;1.30;;
5841;SDS011;2947;52.276;9.946;2022-10-16T16:04:30;4.57;;;1.05;;
5841;SDS011;2947;52.276;9.946;2022-10-16T16:06:56;6.40;;;1.00;;
5841;SDS011;2947;52.276;9.946;2022-10-16T16:09:22;6.03;;;1.10;;
5841;SDS011;2947;52.276;9.946;2022-10-16T16:11:48;2.40;;;0.80;;
5841;SDS011;2947;52.276;9.946;2022-10-16T16:14:16;3.78;;;0.90;;
5841;SDS011;2947;52.276;9.946;2022-10-16T16:16:41;1.90;;;0.75;;
5841;SDS011;2947;52.276;9.946;2022-10-16T16:19:07;3.92;;;1.08;;
5841;SDS011;2947;52.276;9.946;2022-10-16T16:21:34;1.70;;;0.70;;
5841;SDS011;2947;52.276;9.946;2022-10-16T16:24:00;2.60;;;1.00;;
5841;SDS011;2947;52.276;9.946;2022-10-16T16:26:32;5.50;;;1.02;;
5841;SDS011;2947;52.276;9.946;2022-10-16T16:29:01;1.55;;;0.60;;
5841;SDS011;2947;52.276;9.946;2022-10-16T16:31:28;2.42;;;0.80;;
5841;SDS011;2947;52.276;9.946;2022-10-16T16:33:56;4.50;;;1.00;;
5841;SDS011;2947;52.276;9.946;2022-10-16T16:36:22;5.65;;;1.08;;
5841;SDS011;2947;52.276;9.946;2022-10-16T16:38:50;5.80;;;0.82;;
5841;SDS011;2947;52.276;9.946;2022-10-16T16:41:34;5.45;;;1.10;;
5841;SDS011;2947;52.276;9.946;2022-10-16T16:44:04;3.15;;;0.90;;
5841;SDS011;2947;52.276;9.946;2022-10-16T16:46:32;4.82;;;0.93;;
5841;SDS011;2947;52.276;9.946;2022-10-16T16:48:59;1.75;;;0.95;;
5841;SDS011;2947;52.276;9.946;2022-10-16T16:51:26;4.30;;;1.00;;
5841;SDS011;2947;52.276;9.946;2022-10-16T16:53:52;3.92;;;1.10;;
5841;SDS011;2947;52.276;9.946;2022-10-16T16:56:19;2.35;;;0.80;;
5841;SDS011;2947;52.276;9.946;2022-10-16T16:58:46;2.90;;;1.17;;
5841;SDS011;2947;52.276;9.946;2022-10-16T17:01:14;2.63;;;0.80;;
5841;SDS011;2947;52.276;9.946;2022-10-16T17:03:42;3.50;;;0.70;;
5841;SDS011;2947;52.276;9.946;2022-10-16T17:06:12;2.70;;;0.70;;
5841;SDS011;2947;52.276;9.946;2022-10-16T17:08:42;1.95;;;0.70;;
5841;SDS011;2947;52.276;9.946;2022-10-16T17:11:11;1.95;;;0.70;;
5841;SDS011;2947;52.276;9.946;2022-10-16T17:13:39;2.58;;;1.10;;
5841;SDS011;2947;52.276;9.946;2022-10-16T17:16:05;2.45;;;0.80;;
5841;SDS011;2947;52.276;9.946;2022-10-16T17:18:32;3.60;;;0.82;;
5841;SDS011;2947;52.276;9.946;2022-10-16T17:20:59;2.58;;;1.20;;
5841;SDS011;2947;52.276;9.946;2022-10-16T17:23:28;4.60;;;1.15;;
5841;SDS011;2947;52.276;9.946;2022-10-16T17:25:53;3.90;;;1.17;;
5841;SDS011;2947;52.276;9.946;2022-10-16T17:28:19;2.65;;;0.80;;
5841;SDS011;2947;52.276;9.946;2022-10-16T17:30:45;3.95;;;0.80;;
5841;SDS011;2947;52.276;9.946;2022-10-16T17:33:12;2.58;;;0.90;;
5841;SDS011;2947;52.276;9.946;2022-10-16T17:35:44;2.38;;;0.80;;
5841;SDS011;2947;52.276;9.946;2022-10-16T17:38:11;1.88;;;0.90;;